Auburn, WY (83111)

2:00 AM MDT on July 29, 2014 (GMT -0600)
LCWY Branch Office (KWYAFTON3) Elev 6270 ft | 42.72 °N, 110.93 °W | Change Station
Active Advisory: Special Statement

Current weather conditions updated 13 minutes ago

Clear
Clear
62.2 °F
Feels Like 62.2 °F
N
3.0
Wind Variable Wind from SW
Gusts 4.0 mph

Today is forecast to be Much Cooler than yesterday. A few thunderstorms possible.

Today
High -- | Low -- °F
--% Chance of Precip.
Yesterday
High -- | Low -- °F
Precip. -- in
6:12 AM 8:47 PM
Waxing Crescent, 5% visible
Pressure 30.35 in
Visibility 10.0 miles
Clouds Clear
Dew Point 51 °F
Humidity 68%
Rainfall 0.00 in
Snow Depth Not available.
UV 0 out of 12
Pollen 6.30 out of 12
Air Quality Not available.
Flu Activity Not available.
METAR KAFO 290755Z AUTO 17005KT 10SM CLR 16/10 A3035 RMK AO2

More Conditions Fewer Conditions

Pressure 30.35 in
Visibility 10.0 miles
Clouds Clear
Dew Point 51 °F
Humidity 68%
Rainfall 0.00 in
Snow Depth Not available.
UV 0 out of 12
Pollen 6.30 out of 12
Air Quality Not available.
Flu Activity Not available.
METAR KAFO 290755Z AUTO 17005KT 10SM CLR 16/10 A3035 RMK AO2

More Conditions Fewer Conditions

10-Day Weather Forecast

Almanac

Astronomy

Jul. 29, 2014 Rise Set
Actual Time 6:12 AM MDT 8:47 PM MDT
Civil Twilight 5:39 AM MDT 9:20 PM MDT
Nautical Twilight 4:59 AM MDT 10:00 PM MDT
Astronomical Twilight 4:13 AM MDT 10:46 PM MDT
Moon 8:57 AM MDT 9:56 PM MDT
Length of Visible Light 15h 40m
Length of Day
14h 35m
Tomorrow will be 2m 9s shorter.
Waxing Crescent, 5% of the Moon is Illuminated
Today
Waxing Crescent
Aug 3
First Quarter
Aug 10
Full
Aug 17
Last Quarter
Aug 25
New

Today's Extremes

State Highs State Lows

Community

WunderPhotos

Upload Photos

1,738,651 photos uploaded!

Nearby

Snow Depth

Station Depth Elevation
Willow Creek 6 in 8450 ft
Salt River Summit 0 in 7600 ft
Blind Bull Summit 1 in 8900 ft
Kelley R.S. 0 in 8180 ft
Hams Fork 0 in 7840 ft

Earthquake Activity

City Distance Mag. Time & Date
No recent earthquake activity has been reported nearby.
Minimum magnitude displayed is 2.5.

Coastal Water Temperatures

Place Temperature
No Stations Reporting

Nearby Weather Stations

Station Location Temp. Dew Point Humidity Wind Precip. Elev Updated Type
MesoWest AFTON , Afton, WY 63 °F 50 °F 62% SSE  at  1 mph 0.00 in / hr 6210 ft 1:00 AM MDT MADIS
LCWY Branch Office, Afton, WY 62.2 °F 51 °F 68% SW  at  3.0 mph 0.00 in / hr 6270 ft 1:46 AM MDT Normal
Afton, WY 62.4 °F 38 °F 41% ENE  at  0.0 mph 0.00 in / hr 6312 ft 2:00 AM MDT Normal

Show More Stations Show Fewer Stations